Time;durP1;ratioP1;P1;durP2;ratioP2;P2;SDS_P1;SDS_P2;PMS_P1;PMS_P2;Temp;Humidity;BMP_temperature;BMP_pressure;BME280_temperature;BME280_humidity;BME280_pressure;Samples;Min_cycle;Max_cycle;Signal;HPM_P1;HPM_P2
2023/09/28 00:02:52;;;;;;;14.07;7.25;;;;;;;;;;4894937;29;20089;-84
2023/09/28 00:05:19;;;;;;;16.27;7.82;;;;;;;;;;4895414;29;20048;-84
2023/09/28 00:07:46;;;;;;;11.90;7.75;;;;;;;;;;4897548;29;20024;-85
2023/09/28 00:10:12;;;;;;;8.82;6.95;;;;;;;;;;4894348;29;20046;-84
2023/09/28 00:12:42;;;;;;;10.40;7.03;;;;;;;;;;4891789;29;20049;-84
2023/09/28 00:15:09;;;;;;;12.02;7.43;;;;;;;;;;4895658;29;20036;-84
2023/09/28 00:17:35;;;;;;;14.18;8.18;;;;;;;;;;4883917;29;20112;-84
2023/09/28 00:20:04;;;;;;;11.20;7.25;;;;;;;;;;4863292;29;20040;-85
2023/09/28 00:22:30;;;;;;;17.33;7.65;;;;;;;;;;4894512;29;20047;-86
2023/09/28 00:24:56;;;;;;;14.00;7.75;;;;;;;;;;4877608;29;20139;-83
2023/09/28 00:27:22;;;;;;;8.95;7.22;;;;;;;;;;4894061;29;20040;-84
2023/09/28 00:29:50;;;;;;;10.60;6.78;;;;;;;;;;4894555;29;20041;-85
2023/09/28 00:32:17;;;;;;;9.85;6.80;;;;;;;;;;4894642;29;20032;-84
2023/09/28 00:34:43;;;;;;;9.32;7.43;;;;;;;;;;4896167;29;20104;-85
2023/09/28 00:37:09;;;;;;;9.55;6.50;;;;;;;;;;4896073;29;20475;-84
2023/09/28 00:39:36;;;;;;;11.05;6.65;;;;;;;;;;4896643;29;20033;-85
2023/09/28 00:42:02;;;;;;;8.18;6.30;;;;;;;;;;4872097;29;20053;-83
2023/09/28 00:44:28;;;;;;;8.43;6.22;;;;;;;;;;4901987;29;20064;-88
2023/09/28 00:46:55;;;;;;;9.77;6.07;;;;;;;;;;4904907;29;20024;-85
2023/09/28 00:49:23;;;;;;;7.30;5.65;;;;;;;;;;4896536;29;20112;-86
2023/09/28 00:51:49;;;;;;;10.00;6.43;;;;;;;;;;4895844;29;20499;-86
2023/09/28 00:54:15;;;;;;;8.65;6.10;;;;;;;;;;4879096;29;20115;-87
2023/09/28 00:56:41;;;;;;;7.18;5.63;;;;;;;;;;4895696;29;20053;-85
2023/09/28 00:59:07;;;;;;;6.18;5.05;;;;;;;;;;4894103;29;20029;-85
2023/09/28 01:01:33;;;;;;;8.35;5.10;;;;;;;;;;4894394;29;20057;-84
2023/09/28 01:04:04;;;;;;;9.18;5.45;;;;;;;;;;4892563;29;20059;-86
2023/09/28 01:06:31;;;;;;;8.60;5.10;;;;;;;;;;4889311;29;20092;-85
2023/09/28 01:08:57;;;;;;;6.90;4.93;;;;;;;;;;4896657;29;20038;-84
2023/09/28 01:11:24;;;;;;;7.38;5.32;;;;;;;;;;4878745;29;20029;-85
2023/09/28 01:13:50;;;;;;;6.90;4.60;;;;;;;;;;4885622;29;20040;-85
2023/09/28 01:16:19;;;;;;;7.13;5.13;;;;;;;;;;4889827;29;20049;-87
2023/09/28 01:18:45;;;;;;;10.15;4.78;;;;;;;;;;4895027;29;20032;-85
2023/09/28 01:21:12;;;;;;;12.23;4.93;;;;;;;;;;4888736;29;20037;-85
2023/09/28 01:23:39;;;;;;;5.90;4.78;;;;;;;;;;4891137;29;20036;-84
2023/09/28 01:26:06;;;;;;;8.02;4.93;;;;;;;;;;4893584;29;20029;-85
2023/09/28 01:28:32;;;;;;;9.80;5.30;;;;;;;;;;4894839;29;20056;-85
2023/09/28 01:30:58;;;;;;;10.18;5.00;;;;;;;;;;4891685;29;20036;-85
2023/09/28 01:33:24;;;;;;;9.60;4.90;;;;;;;;;;4895950;29;20044;-84
2023/09/28 01:35:50;;;;;;;9.23;5.45;;;;;;;;;;4894646;29;20059;-83
2023/09/28 01:38:40;;;;;;;9.23;4.88;;;;;;;;;;4877072;29;20503;-84
2023/09/28 01:41:06;;;;;;;8.30;5.13;;;;;;;;;;4884452;29;20128;-85
2023/09/28 01:43:33;;;;;;;8.40;4.57;;;;;;;;;;4892942;29;20101;-85
2023/09/28 01:45:59;;;;;;;7.18;5.07;;;;;;;;;;4894135;29;20025;-84
2023/09/28 01:48:25;;;;;;;8.40;5.45;;;;;;;;;;4889461;29;20047;-84
2023/09/28 01:50:51;;;;;;;5.32;4.60;;;;;;;;;;4894838;29;20116;-84
2023/09/28 01:53:17;;;;;;;8.88;5.28;;;;;;;;;;4894175;29;20491;-84
2023/09/28 01:55:43;;;;;;;11.15;5.32;;;;;;;;;;4891131;29;20040;-84
2023/09/28 01:58:10;;;;;;;8.32;5.10;;;;;;;;;;4895837;29;20552;-83
2023/09/28 02:00:36;;;;;;;7.80;5.47;;;;;;;;;;4894227;29;20058;-84
2023/09/28 02:03:03;;;;;;;6.40;4.78;;;;;;;;;;4889150;29;20104;-84
2023/09/28 02:05:32;;;;;;;7.28;4.95;;;;;;;;;;4895729;29;20515;-85
2023/09/28 02:07:59;;;;;;;7.82;5.35;;;;;;;;;;4895731;29;20479;-84
2023/09/28 02:10:25;;;;;;;7.10;5.45;;;;;;;;;;4893979;29;20032;-83
2023/09/28 02:12:51;;;;;;;4.95;4.35;;;;;;;;;;4892894;29;20129;-83
2023/09/28 02:15:17;;;;;;;7.90;4.88;;;;;;;;;;4894019;29;20044;-84
2023/09/28 02:17:43;;;;;;;5.30;4.80;;;;;;;;;;4903274;29;20143;-82
2023/09/28 02:20:10;;;;;;;8.68;5.18;;;;;;;;;;4898725;29;20025;-83
2023/09/28 02:22:48;;;;;;;9.43;4.82;;;;;;;;;;4895889;29;20616;-84
2023/09/28 02:25:15;;;;;;;11.10;6.45;;;;;;;;;;4897748;29;20025;-83
2023/09/28 02:27:41;;;;;;;9.45;5.10;;;;;;;;;;4896478;29;20060;-82
2023/09/28 02:30:09;;;;;;;7.95;5.20;;;;;;;;;;4897735;29;20506;-83
2023/09/28 02:32:35;;;;;;;7.70;5.10;;;;;;;;;;4891501;29;20029;-83
2023/09/28 02:35:01;;;;;;;6.30;4.43;;;;;;;;;;4896588;29;20047;-83
2023/09/28 02:37:28;;;;;;;8.05;5.10;;;;;;;;;;4897900;29;20035;-78
2023/09/28 02:39:54;;;;;;;12.48;5.53;;;;;;;;;;4889698;29;20041;-80
2023/09/28 02:42:20;;;;;;;10.73;5.13;;;;;;;;;;4888378;29;20105;-81
2023/09/28 02:44:46;;;;;;;12.70;5.97;;;;;;;;;;4881868;29;20029;-80
2023/09/28 02:47:12;;;;;;;14.80;5.72;;;;;;;;;;4894586;29;20041;-78
2023/09/28 02:49:38;;;;;;;7.85;5.25;;;;;;;;;;4898221;29;20439;-84
2023/09/28 02:52:06;;;;;;;16.45;7.10;;;;;;;;;;4865512;29;20132;-85
2023/09/28 02:54:32;;;;;;;12.65;5.78;;;;;;;;;;4880617;29;20041;-83
2023/09/28 02:56:58;;;;;;;15.38;5.70;;;;;;;;;;4887807;29;20040;-83
2023/09/28 02:59:24;;;;;;;9.38;5.50;;;;;;;;;;4896838;29;20047;-79
2023/09/28 03:01:51;;;;;;;6.85;5.43;;;;;;;;;;4893881;29;20040;-78
2023/09/28 03:04:17;;;;;;;9.13;4.90;;;;;;;;;;4895249;29;20036;-78
2023/09/28 03:06:45;;;;;;;6.32;5.32;;;;;;;;;;4895235;29;20045;-83
2023/09/28 03:09:12;;;;;;;15.07;7.63;;;;;;;;;;4895351;29;20428;-74
2023/09/28 03:11:39;;;;;;;8.13;5.38;;;;;;;;;;4885283;29;20043;-74
2023/09/28 03:14:06;;;;;;;10.38;7.53;;;;;;;;;;4894424;29;20037;-74
2023/09/28 03:16:32;;;;;;;7.78;5.82;;;;;;;;;;4880319;29;20062;-73
2023/09/28 03:19:00;;;;;;;16.20;5.95;;;;;;;;;;4886187;29;20029;-73
2023/09/28 03:21:27;;;;;;;9.77;5.57;;;;;;;;;;4895623;29;20043;-73
2023/09/28 03:23:54;;;;;;;8.45;5.63;;;;;;;;;;4894486;29;20218;-72
2023/09/28 03:26:20;;;;;;;13.13;5.70;;;;;;;;;;4894704;29;20041;-73
2023/09/28 03:28:46;;;;;;;17.73;11.70;;;;;;;;;;4887775;29;20043;-75
2023/09/28 03:31:12;;;;;;;15.95;9.40;;;;;;;;;;4889752;29;20041;-74
2023/09/28 03:33:38;;;;;;;10.07;6.13;;;;;;;;;;4896851;29;20068;-75
2023/09/28 03:36:04;;;;;;;8.13;5.38;;;;;;;;;;4900341;29;20048;-85
2023/09/28 03:38:30;;;;;;;8.15;5.53;;;;;;;;;;4881012;29;20499;-82
2023/09/28 03:40:57;;;;;;;6.38;5.10;;;;;;;;;;4882796;29;20100;-82
2023/09/28 03:43:24;;;;;;;8.45;5.63;;;;;;;;;;4897334;29;20156;-82
2023/09/28 03:45:50;;;;;;;11.88;5.80;;;;;;;;;;4876365;29;20379;-83
2023/09/28 03:48:16;;;;;;;9.93;5.47;;;;;;;;;;4897601;29;20033;-84
2023/09/28 03:50:43;;;;;;;7.80;4.93;;;;;;;;;;4897471;29;20044;-83
2023/09/28 03:53:09;;;;;;;8.05;5.38;;;;;;;;;;4880183;29;20043;-84
2023/09/28 03:55:35;;;;;;;7.68;5.45;;;;;;;;;;4895938;29;20047;-84
2023/09/28 03:58:01;;;;;;;13.23;5.50;;;;;;;;;;4870658;29;20470;-82
2023/09/28 04:00:28;;;;;;;8.25;5.28;;;;;;;;;;4875120;29;20092;-84
2023/09/28 04:02:54;;;;;;;8.68;5.45;;;;;;;;;;4893142;29;20567;-84
2023/09/28 04:05:20;;;;;;;10.32;5.65;;;;;;;;;;4897326;29;20037;-84
2023/09/28 04:07:47;;;;;;;9.75;5.90;;;;;;;;;;4897940;29;20037;-85
2023/09/28 04:10:13;;;;;;;11.20;5.60;;;;;;;;;;4894536;29;20066;-86
2023/09/28 04:12:39;;;;;;;9.60;5.70;;;;;;;;;;4876441;29;20613;-84
2023/09/28 04:15:05;;;;;;;11.18;5.57;;;;;;;;;;4883336;29;20029;-87
2023/09/28 04:17:34;;;;;;;7.85;5.45;;;;;;;;;;4895784;29;20100;-87
2023/09/28 04:20:00;;;;;;;7.07;5.75;;;;;;;;;;4886659;29;20033;-89
2023/09/28 04:22:26;;;;;;;9.52;5.32;;;;;;;;;;4875033;29;20056;-86
2023/09/28 04:24:52;;;;;;;9.35;4.95;;;;;;;;;;4897017;29;20075;-86
2023/09/28 04:27:18;;;;;;;10.25;6.20;;;;;;;;;;4895088;29;20410;-87
2023/09/28 04:29:44;;;;;;;9.07;5.72;;;;;;;;;;4895408;29;20082;-87
2023/09/28 04:32:10;;;;;;;7.93;6.28;;;;;;;;;;4895043;29;20028;-87
2023/09/28 04:34:36;;;;;;;11.10;5.57;;;;;;;;;;4897256;29;20481;-86
2023/09/28 04:37:03;;;;;;;12.27;5.97;;;;;;;;;;4867244;29;20036;-88
2023/09/28 04:39:29;;;;;;;14.88;5.70;;;;;;;;;;4892626;29;20144;-86
2023/09/28 04:41:56;;;;;;;9.73;5.82;;;;;;;;;;4892991;29;20084;-86
2023/09/28 04:44:23;;;;;;;8.38;6.07;;;;;;;;;;4889447;29;20051;-87
2023/09/28 04:46:50;;;;;;;12.13;6.18;;;;;;;;;;4882593;29;20033;-86
2023/09/28 04:49:16;;;;;;;8.27;4.60;;;;;;;;;;4903376;29;20036;-83
2023/09/28 04:51:42;;;;;;;11.65;4.85;;;;;;;;;;4893353;29;20055;-86
2023/09/28 04:54:09;;;;;;;15.35;4.30;;;;;;;;;;4869725;29;20551;-87
2023/09/28 04:56:35;;;;;;;11.73;3.58;;;;;;;;;;4893884;29;20040;-86
2023/09/28 04:59:02;;;;;;;16.38;3.33;;;;;;;;;;4896741;29;20134;-88
2023/09/28 05:01:28;;;;;;;13.93;3.08;;;;;;;;;;4892293;29;20526;-88
2023/09/28 05:03:54;;;;;;;16.05;3.70;;;;;;;;;;4874921;29;20044;-86
2023/09/28 05:06:20;;;;;;;16.35;5.00;;;;;;;;;;4894050;29;20036;-86
2023/09/28 05:08:47;;;;;;;18.90;3.72;;;;;;;;;;4885783;29;20570;-85
2023/09/28 05:11:13;;;;;;;16.15;3.97;;;;;;;;;;4887158;29;20135;-87
2023/09/28 05:13:39;;;;;;;25.63;3.72;;;;;;;;;;4888856;29;20040;-86
2023/09/28 05:16:05;;;;;;;22.80;3.72;;;;;;;;;;4874604;29;20076;-86
2023/09/28 05:18:31;;;;;;;20.92;3.97;;;;;;;;;;4892333;29;20144;-87
2023/09/28 05:20:57;;;;;;;27.33;4.32;;;;;;;;;;4866941;29;20550;-85
2023/09/28 05:23:24;;;;;;;22.17;3.95;;;;;;;;;;4886104;29;20036;-84
2023/09/28 05:25:50;;;;;;;25.67;4.43;;;;;;;;;;4888880;29;20079;-85
2023/09/28 05:28:16;;;;;;;17.75;3.65;;;;;;;;;;4891431;29;20710;-89
2023/09/28 05:30:42;;;;;;;24.73;3.50;;;;;;;;;;4894623;29;20037;-86
2023/09/28 05:33:08;;;;;;;24.65;3.60;;;;;;;;;;4889787;29;20047;-85
2023/09/28 05:35:34;;;;;;;21.10;3.53;;;;;;;;;;4890939;29;20045;-86
2023/09/28 05:38:00;;;;;;;543.55;251.90;;;;;;;;;;4892233;29;20044;-90
2023/09/28 05:40:26;;;;;;;24.63;4.40;;;;;;;;;;4881809;29;20029;-86
2023/09/28 05:42:52;;;;;;;30.83;3.75;;;;;;;;;;4859923;29;20072;-85
2023/09/28 05:45:18;;;;;;;23.85;4.00;;;;;;;;;;4875121;29;20051;-87
2023/09/28 05:47:44;;;;;;;23.38;5.03;;;;;;;;;;4888870;29;20059;-86
2023/09/28 05:50:11;;;;;;;25.60;4.60;;;;;;;;;;4889193;29;20041;-85
2023/09/28 05:52:37;;;;;;;28.90;4.07;;;;;;;;;;4890041;29;20128;-85
2023/09/28 05:55:03;;;;;;;19.15;4.15;;;;;;;;;;4892097;29;20044;-85
2023/09/28 05:57:30;;;;;;;25.85;5.07;;;;;;;;;;4894928;29;20097;-84
2023/09/28 05:59:56;;;;;;;28.95;4.45;;;;;;;;;;4896345;29;20040;-86
2023/09/28 06:02:22;;;;;;;23.15;4.13;;;;;;;;;;4897197;29;20044;-85
2023/09/28 06:04:48;;;;;;;28.75;4.30;;;;;;;;;;4896503;29;20037;-86
2023/09/28 06:07:14;;;;;;;28.42;5.32;;;;;;;;;;4902415;29;20033;-86
2023/09/28 06:09:41;;;;;;;31.48;4.03;;;;;;;;;;4890784;29;20138;-84
2023/09/28 06:12:07;;;;;;;20.40;3.65;;;;;;;;;;4896957;29;20856;-86
2023/09/28 06:14:36;;;;;;;24.30;3.47;;;;;;;;;;4902876;29;20051;-86
2023/09/28 06:17:02;;;;;;;27.00;4.55;;;;;;;;;;4888158;29;20044;-87
2023/09/28 06:19:28;;;;;;;39.70;5.53;;;;;;;;;;4892596;29;20108;-86
2023/09/28 06:21:54;;;;;;;30.45;4.25;;;;;;;;;;4888011;29;20033;-84
2023/09/28 06:24:21;;;;;;;28.70;4.65;;;;;;;;;;4872027;29;20946;-85
2023/09/28 06:26:49;;;;;;;29.83;5.05;;;;;;;;;;4876264;29;20497;-87
2023/09/28 06:29:15;;;;;;;25.27;4.00;;;;;;;;;;4895161;29;20025;-86
2023/09/28 06:31:44;;;;;;;27.13;4.25;;;;;;;;;;4899067;29;20028;-85
2023/09/28 06:34:10;;;;;;;28.90;4.18;;;;;;;;;;4892694;29;20446;-82
2023/09/28 06:36:37;;;;;;;28.23;4.18;;;;;;;;;;4897809;29;20144;-85
2023/09/28 06:39:03;;;;;;;25.25;5.25;;;;;;;;;;4892740;29;20039;-87
2023/09/28 06:41:30;;;;;;;20.73;4.47;;;;;;;;;;4893589;29;20031;-85
2023/09/28 06:43:56;;;;;;;25.38;4.32;;;;;;;;;;4890978;29;20108;-85
2023/09/28 06:46:23;;;;;;;36.05;6.03;;;;;;;;;;4894903;29;20056;-86
2023/09/28 06:48:52;;;;;;;25.33;5.50;;;;;;;;;;4886582;29;20045;-87
2023/09/28 06:51:19;;;;;;;30.13;5.47;;;;;;;;;;4888765;29;20037;-85
2023/09/28 06:53:45;;;;;;;28.15;5.88;;;;;;;;;;4889982;29;20135;-88
2023/09/28 06:56:12;;;;;;;26.48;4.35;;;;;;;;;;4889017;29;20048;-87
2023/09/28 06:58:38;;;;;;;33.25;4.95;;;;;;;;;;4897641;29;20032;-86
2023/09/28 07:01:04;;;;;;;30.05;4.97;;;;;;;;;;4878125;29;20033;-86
2023/09/28 07:03:31;;;;;;;54.22;23.35;;;;;;;;;;4893436;29;20059;-74
2023/09/28 07:05:57;;;;;;;38.80;11.18;;;;;;;;;;4890998;29;20054;-76
2023/09/28 07:08:24;;;;;;;34.63;7.30;;;;;;;;;;4891715;29;20031;-75
2023/09/28 07:10:50;;;;;;;33.63;7.00;;;;;;;;;;4883117;29;20320;-76
2023/09/28 07:13:16;;;;;;;24.80;5.15;;;;;;;;;;4874879;29;20452;-74
2023/09/28 07:15:42;;;;;;;35.38;5.63;;;;;;;;;;4894779;29;20041;-74
2023/09/28 07:18:08;;;;;;;22.73;4.03;;;;;;;;;;4891802;29;20052;-75
2023/09/28 07:20:36;;;;;;;26.95;4.45;;;;;;;;;;4895737;29;20033;-75
2023/09/28 07:23:02;;;;;;;23.92;5.20;;;;;;;;;;4897912;29;20040;-83
2023/09/28 07:25:29;;;;;;;33.67;6.38;;;;;;;;;;4897522;29;20024;-82
2023/09/28 07:27:56;;;;;;;26.20;4.30;;;;;;;;;;4895314;29;20060;-84
2023/09/28 07:30:25;;;;;;;25.15;3.97;;;;;;;;;;4894144;29;20091;-81
2023/09/28 07:32:51;;;;;;;23.50;4.53;;;;;;;;;;4890505;29;20135;-80
2023/09/28 07:35:19;;;;;;;27.75;5.03;;;;;;;;;;4889309;29;20090;-83
2023/09/28 07:37:45;;;;;;;31.45;5.47;;;;;;;;;;4895460;29;21169;-81
2023/09/28 07:40:12;;;;;;;32.88;5.70;;;;;;;;;;4888674;29;20025;-80
2023/09/28 07:42:44;;;;;;;29.98;6.28;;;;;;;;;;4877443;29;20468;-79
2023/09/28 07:45:11;;;;;;;34.53;5.68;;;;;;;;;;4889445;29;20505;-80
2023/09/28 07:47:38;;;;;;;31.45;5.28;;;;;;;;;;4884634;29;20546;-81
2023/09/28 07:50:05;;;;;;;33.20;5.57;;;;;;;;;;4896212;29;20043;-82
2023/09/28 07:52:31;;;;;;;27.20;4.90;;;;;;;;;;4888853;29;20029;-82
2023/09/28 07:54:57;;;;;;;22.35;4.20;;;;;;;;;;4894654;29;20075;-90
2023/09/28 07:57:23;;;;;;;23.83;4.80;;;;;;;;;;4895742;29;20060;-86
2023/09/28 07:59:49;;;;;;;27.25;4.25;;;;;;;;;;4895422;29;20575;-81
2023/09/28 08:02:15;;;;;;;31.13;5.10;;;;;;;;;;4893281;29;20039;-80
2023/09/28 08:04:41;;;;;;;35.78;4.93;;;;;;;;;;4894750;29;20045;-80
2023/09/28 08:07:07;;;;;;;64.90;30.17;;;;;;;;;;4894758;29;20519;-80
2023/09/28 08:09:33;;;;;;;32.55;10.55;;;;;;;;;;4895227;29;20096;-78
2023/09/28 08:11:59;;;;;;;28.80;6.22;;;;;;;;;;4896596;29;20399;-83
2023/09/28 08:14:25;;;;;;;25.95;5.50;;;;;;;;;;4872492;29;20041;-80
2023/09/28 08:16:52;;;;;;;21.70;4.40;;;;;;;;;;4882899;29;20049;-79
2023/09/28 08:19:19;;;;;;;21.73;5.28;;;;;;;;;;4875440;29;20047;-81
2023/09/28 08:21:46;;;;;;;33.47;6.22;;;;;;;;;;4894282;29;20029;-86
2023/09/28 08:24:12;;;;;;;24.08;4.30;;;;;;;;;;4890269;29;20048;-83
2023/09/28 08:26:38;;;;;;;33.63;6.13;;;;;;;;;;4891135;29;20033;-82
2023/09/28 08:29:05;;;;;;;26.17;4.75;;;;;;;;;;4889663;29;20036;-81
2023/09/28 08:31:33;;;;;;;28.23;5.05;;;;;;;;;;4892021;29;20502;-79
2023/09/28 08:34:00;;;;;;;30.15;4.35;;;;;;;;;;4874585;29;20483;-83
2023/09/28 08:36:26;;;;;;;30.17;4.63;;;;;;;;;;4874236;29;20052;-82
2023/09/28 08:38:53;;;;;;;24.73;5.00;;;;;;;;;;4894412;29;20064;-82
2023/09/28 08:41:23;;;;;;;37.38;10.23;;;;;;;;;;4883109;29;20040;-73
2023/09/28 08:43:53;;;;;;;36.17;6.63;;;;;;;;;;4886516;29;20052;-73
2023/09/28 08:46:24;;;;;;;28.05;5.22;;;;;;;;;;4882098;29;20467;-73
2023/09/28 08:48:51;;;;;;;27.80;4.40;;;;;;;;;;4892581;29;20045;-90
2023/09/28 08:51:18;;;;;;;26.83;4.93;;;;;;;;;;4901487;29;20514;-86
2023/09/28 08:53:44;;;;;;;35.13;5.25;;;;;;;;;;4894847;29;20068;-87
2023/09/28 08:56:11;;;;;;;33.83;5.60;;;;;;;;;;4889160;29;20127;-88
2023/09/28 08:58:37;;;;;;;26.70;4.95;;;;;;;;;;4893498;29;20116;-87
2023/09/28 09:01:07;;;;;;;26.80;5.53;;;;;;;;;;4887441;29;20028;-89
2023/09/28 09:03:33;;;;;;;33.08;5.15;;;;;;;;;;4896826;29;20068;-86
2023/09/28 09:05:59;;;;;;;26.92;5.40;;;;;;;;;;4895558;29;20494;-85
2023/09/28 09:08:27;;;;;;;22.77;4.50;;;;;;;;;;4885901;29;20037;-85
2023/09/28 09:10:53;;;;;;;27.17;5.80;;;;;;;;;;4877055;29;20440;-86
2023/09/28 09:13:19;;;;;;;24.00;4.90;;;;;;;;;;4896346;29;20040;-87
2023/09/28 09:15:46;;;;;;;24.02;4.72;;;;;;;;;;4894612;29;20036;-87
2023/09/28 09:18:19;;;;;;;29.13;3.70;;;;;;;;;;4877844;29;20096;-85
2023/09/28 09:20:46;;;;;;;26.67;4.55;;;;;;;;;;4894071;29;20471;-85
2023/09/28 09:23:13;;;;;;;16.05;3.88;;;;;;;;;;4877293;29;20041;-85
2023/09/28 09:25:42;;;;;;;24.25;3.80;;;;;;;;;;4882088;29;20498;-86
2023/09/28 09:28:09;;;;;;;23.58;4.72;;;;;;;;;;4883573;29;20044;-85
2023/09/28 09:30:38;;;;;;;23.10;4.82;;;;;;;;;;4873329;29;20120;-85
2023/09/28 09:33:09;;;;;;;24.92;3.97;;;;;;;;;;4885358;29;20073;-86
2023/09/28 09:35:38;;;;;;;24.33;4.68;;;;;;;;;;4882692;29;20442;-85
2023/09/28 09:38:04;;;;;;;27.33;4.60;;;;;;;;;;4898283;29;20037;-87
2023/09/28 09:40:31;;;;;;;25.95;4.60;;;;;;;;;;4889111;29;20083;-87
2023/09/28 09:43:06;;;;;;;26.30;4.53;;;;;;;;;;4881375;29;20060;-86
2023/09/28 09:45:32;;;;;;;25.35;4.72;;;;;;;;;;4900026;29;20029;-88
2023/09/28 09:47:59;;;;;;;23.75;5.30;;;;;;;;;;4900034;29;20463;-87
2023/09/28 09:50:26;;;;;;;27.63;4.70;;;;;;;;;;4898405;29;20033;-87
2023/09/28 09:52:52;;;;;;;29.95;5.10;;;;;;;;;;4892553;29;20598;-87
2023/09/28 09:55:18;;;;;;;37.55;5.38;;;;;;;;;;4899923;29;20041;-87
2023/09/28 09:57:47;;;;;;;26.40;4.65;;;;;;;;;;4898799;29;20040;-76
2023/09/28 10:00:15;;;;;;;23.50;4.57;;;;;;;;;;4875970;29;20036;-80
2023/09/28 10:02:43;;;;;;;22.73;5.32;;;;;;;;;;4884853;29;20139;-79
2023/09/28 10:05:12;;;;;;;23.48;4.70;;;;;;;;;;4890301;29;20466;-86
2023/09/28 10:07:38;;;;;;;30.33;4.80;;;;;;;;;;4882843;29;20036;-83
2023/09/28 10:10:06;;;;;;;29.63;5.15;;;;;;;;;;4915266;29;20056;-81
2023/09/28 10:12:32;;;;;;;24.35;5.45;;;;;;;;;;4906570;29;20032;-81
2023/09/28 10:15:01;;;;;;;36.72;5.90;;;;;;;;;;4887910;29;20047;-83
2023/09/28 10:17:28;;;;;;;28.20;4.72;;;;;;;;;;4892340;29;20108;-82
2023/09/28 10:19:57;;;;;;;35.28;8.02;;;;;;;;;;4893558;29;20045;-79
2023/09/28 10:22:23;;;;;;;34.85;7.90;;;;;;;;;;4888406;29;20510;-77
2023/09/28 10:24:49;;;;;;;42.75;14.38;;;;;;;;;;4874096;29;20394;-76
2023/09/28 10:27:16;;;;;;;29.83;6.13;;;;;;;;;;4891142;29;20036;-81
2023/09/28 10:29:42;;;;;;;24.40;4.75;;;;;;;;;;4888098;29;20238;-81
2023/09/28 10:32:30;;;;;;;33.45;6.32;;;19.90;99.90;;;;;;4896770;29;20036;-81
2023/09/28 10:35:12;;;;;;;23.73;5.75;;;;;;;;;;4899020;29;20099;-83
2023/09/28 10:37:38;;;;;;;35.85;5.63;;;;;;;;;;4871202;29;20037;-82
2023/09/28 10:40:05;;;;;;;23.48;5.22;;;;;;;;;;4867991;29;20571;-83
2023/09/28 10:42:32;;;;;;;23.70;5.78;;;;;;;;;;4896200;29;20184;-83
2023/09/28 10:45:00;;;;;;;33.10;5.10;;;;;;;;;;4897749;29;20068;-82
2023/09/28 10:47:30;;;;;;;25.13;4.55;;;;;;;;;;4894241;29;20031;-81
2023/09/28 10:50:00;;;;;;;21.17;4.65;;;;;;;;;;4895263;29;20125;-80
2023/09/28 10:52:26;;;;;;;26.02;4.88;;;;;;;;;;4896130;29;20024;-84
2023/09/28 10:54:52;;;;;;;20.85;4.45;;;;;;;;;;4896690;29;20051;-78
2023/09/28 10:57:18;;;;;;;26.88;5.90;;;;;;;;;;4878584;29;20037;-80
2023/09/28 10:59:45;;;;;;;23.88;4.43;;;;;;;;;;4879942;29;20124;-79
2023/09/28 11:02:13;;;;;;;25.60;6.10;;;;;;;;;;4898365;29;20027;-83
2023/09/28 11:04:41;;;;;;;23.58;4.75;;;;;;;;;;4895090;29;20040;-81
2023/09/28 11:07:07;;;;;;;25.02;5.05;;;;;;;;;;4880422;29;20505;-81
2023/09/28 11:09:33;;;;;;;27.65;7.57;;;;;;;;;;4898187;29;20450;-87
2023/09/28 11:11:59;;;;;;;30.05;8.90;;;;;;;;;;4898815;29;20486;-83
2023/09/28 11:14:25;;;;;;;22.00;4.45;;;;;;;;;;4895587;29;20542;-81
2023/09/28 11:16:52;;;;;;;24.58;4.07;;;;;;;;;;4892089;29;20041;-84
2023/09/28 11:19:19;;;;;;;24.83;4.47;;;;;;;;;;4892398;29;20539;-86
2023/09/28 11:21:48;;;;;;;23.00;4.50;;;;;;;;;;4895899;29;20112;-82
2023/09/28 11:24:14;;;;;;;26.52;4.47;;;;;;;;;;4894976;29;20020;-83
2023/09/28 11:26:40;;;;;;;24.48;4.13;;;;;;;;;;4897207;29;20041;-84
2023/09/28 11:29:06;;;;;;;24.63;4.43;;;;;;;;;;4896672;29;20437;-84
2023/09/28 11:31:35;;;;;;;24.73;4.97;;;;;;;;;;4895278;29;20044;-85
2023/09/28 11:34:05;;;;;;;20.65;4.35;;;;;;;;;;4893327;29;20047;-86
2023/09/28 11:36:32;;;;;;;25.33;4.75;;;;;;;;;;4895822;29;20487;-87
2023/09/28 11:38:58;;;;;;;24.83;3.67;;;;;;;;;;4887815;29;20405;-85
2023/09/28 11:41:24;;;;;;;21.45;4.45;;;;;;;;;;4879980;29;20096;-85
2023/09/28 11:43:53;;;;;;;21.67;4.97;;;;;;;;;;4897858;29;20423;-86
2023/09/28 11:46:22;;;;;;;25.75;4.80;;;;;;;;;;4898321;29;20060;-86
2023/09/28 11:48:49;;;;;;;30.70;5.15;;;;;;;;;;4896179;29;20028;-86
2023/09/28 11:51:15;;;;;;;29.95;5.28;;;;;;;;;;4881264;29;20060;-86
2023/09/28 11:53:42;;;;;;;28.00;4.47;;;;;;;;;;4879018;29;20044;-86
2023/09/28 11:56:10;;;;;;;18.70;3.28;;;;;;;;;;4896826;29;20489;-84
2023/09/28 11:58:36;;;;;;;26.73;6.00;;;;;;;;;;4897789;29;20028;-87
2023/09/28 12:01:03;;;;;;;24.20;5.07;;;;;;;;;;4897893;29;20040;-86
2023/09/28 12:03:29;;;;;;;31.65;5.63;;;;;;;;;;4896553;29;20060;-88
2023/09/28 12:05:55;;;;;;;20.45;4.13;;;;;;;;;;4902230;29;20037;-84
2023/09/28 12:08:21;;;;;;;25.52;5.00;;;;;;;;;;4880820;29;20383;-83
2023/09/28 12:10:47;;;;;;;28.77;5.80;;;;;;;;;;4897840;29;20033;-84
2023/09/28 12:13:13;;;;;;;21.63;5.30;;;;;;;;;;4896060;29;20056;-84
2023/09/28 12:15:39;;;;;;;22.27;4.30;;;;;;;;;;4891970;29;20041;-84
2023/09/28 12:18:05;;;;;;;25.80;3.78;;;;;;;;;;4882257;29;20044;-84
2023/09/28 12:20:32;;;;;;;19.83;3.75;;;;;;;;;;4881899;29;20028;-83
2023/09/28 12:23:00;;;;;;;21.08;4.88;;;;;;;;;;4880091;29;20113;-84
2023/09/28 12:25:28;;;;;;;14.77;4.32;;;;;;;;;;4896022;29;20037;-84
2023/09/28 12:27:54;;;;;;;23.92;3.53;;;;;;;;;;4905565;29;20055;-84
2023/09/28 12:30:21;;;;;;;26.15;4.63;;;;;;;;;;4905347;29;20032;-85
2023/09/28 12:32:49;;;;;;;25.70;4.75;;;;;;;;;;4894302;29;20044;-84
2023/09/28 12:35:15;;;;;;;28.65;6.63;;;;;;;;;;4896806;29;20051;-86
2023/09/28 12:37:41;;;;;;;21.90;3.85;;;;;;;;;;4885999;29;20804;-83
2023/09/28 12:40:11;;;;;;;13.60;3.05;;;;;;;;;;4868517;29;20025;-83
2023/09/28 12:42:42;;;;;;;21.50;4.57;;;;;;;;;;4877304;29;20048;-83
2023/09/28 12:45:08;;;;;;;24.15;4.00;;;;;;;;;;4878642;29;20033;-86
2023/09/28 12:47:34;;;;;;;14.75;4.38;;;;;;;;;;4894511;29;23326;-85
2023/09/28 12:50:02;;;;;;;22.20;4.65;;;;;;;;;;4897253;29;20060;-86
2023/09/28 12:52:28;;;;;;;22.10;4.90;;;;;;;;;;4895609;29;20111;-86
2023/09/28 12:54:54;;;;;;;22.10;4.07;;;;;;;;;;4881496;29;20044;-84
2023/09/28 12:57:20;;;;;;;28.10;3.97;;;;;;;;;;4894947;29;20037;-86
2023/09/28 12:59:46;;;;;;;33.45;5.10;;;;;;;;;;4891123;29;20111;-81
2023/09/28 13:02:13;;;;;;;29.00;4.72;;;;;;;;;;4891132;29;20028;-82
2023/09/28 13:04:39;;;;;;;26.05;4.93;;;;;;;;;;4894289;29;20047;-82
2023/09/28 13:07:05;;;;;;;23.95;4.63;;;;;;;;;;4888648;29;20488;-82
2023/09/28 13:09:32;;;;;;;26.92;5.25;;;;;;;;;;4889002;29;20044;-85
2023/09/28 13:11:59;;;;;;;23.52;5.18;;;;;;;;;;4891684;29;20059;-85
2023/09/28 13:14:26;;;;;;;31.40;4.45;;;;;;;;;;4887350;29;20041;-76
2023/09/28 13:16:55;;;;;;;19.17;6.13;;;;;;;;;;4885581;29;20045;-73
2023/09/28 13:19:25;;;;;;;20.48;5.10;;;;;;;;;;4890576;29;20502;-73
2023/09/28 13:22:01;;;;;;;24.70;5.70;;;;;;;;;;4893055;29;20394;-74
2023/09/28 13:24:27;;;;;;;31.08;4.68;;;;;;;;;;4874402;29;20041;-74
2023/09/28 13:26:54;;;;;;;23.15;4.50;;;;;;;;;;4889944;29;20375;-74
2023/09/28 13:29:21;;;;;;;25.25;5.50;;;;;;;;;;4891889;29;20032;-75
2023/09/28 13:31:47;;;;;;;26.45;3.72;;;;;;;;;;4886779;29;20080;-76
2023/09/28 13:34:15;;;;;;;24.38;5.15;;;;;;;;;;4892475;29;20051;-77
2023/09/28 13:36:41;;;;;;;21.30;5.20;;;;;;;;;;4890872;29;20032;-75
2023/09/28 13:39:22;;;;;;;24.55;5.45;;;;;;;;;;4886757;29;20475;-76
2023/09/28 13:41:51;;;;;;;27.02;3.78;;;;;;;;;;4891518;29;20029;-74
2023/09/28 13:44:17;;;;;;;17.92;5.07;;;;;;;;;;4883320;29;20062;-75
2023/09/28 13:46:43;;;;;;;31.40;4.95;;;;;;;;;;4875701;29;20646;-86
2023/09/28 13:49:09;;;;;;;48.65;22.35;;;;;;;;;;4888015;29;20535;-89
2023/09/28 13:51:36;;;;;;;26.85;7.60;;;;;;;;;;4874692;29;20133;-84
2023/09/28 13:54:02;;;;;;;25.60;4.30;;;;;;;;;;4894454;29;20100;-86
2023/09/28 13:56:34;;;;;;;25.15;4.90;;;;;;;;;;4885719;29;20102;-85
2023/09/28 13:59:02;;;;;;;31.38;4.40;;;;;;;;;;4889464;29;20034;-86
2023/09/28 14:01:28;;;;;;;23.85;4.10;;;;;;;;;;4894280;29;20040;-85
2023/09/28 14:03:55;;;;;;;22.65;4.43;;;;;;;;;;4892210;29;20554;-85
2023/09/28 14:06:21;;;;;;;23.67;3.95;;;;;;;;;;4890520;29;20037;-86
2023/09/28 14:08:48;;;;;;;19.45;3.85;;;;;;;;;;4890048;29;20395;-84
2023/09/28 14:11:21;;;;;;;24.80;4.70;;;;;;;;;;4891530;29;20033;-81
2023/09/28 14:13:47;;;;;;;19.98;5.40;;;;;;;;;;4888452;29;20071;-86
2023/09/28 14:16:13;;;;;;;21.17;6.28;;;;;;;;;;4892885;29;20064;-85
2023/09/28 14:18:40;;;;;;;24.30;4.60;;;;;;;;;;4898215;29;20549;-85
2023/09/28 14:21:06;;;;;;;23.20;4.80;;;;;;;;;;4889341;29;20041;-89
2023/09/28 14:23:32;;;;;;;28.08;4.15;;;;;;;;;;4898400;29;20372;-86
2023/09/28 14:25:58;;;;;;;17.52;3.25;;;;;;;;;;4895178;29;20087;-86
2023/09/28 14:28:25;;;;;;;23.15;4.22;;;;;;;;;;4893343;29;20036;-86
2023/09/28 14:30:52;;;;;;;25.50;3.95;;;;;;;;;;4899251;29;20035;-87